Ocean City, Washington
Current Conditions -  °F | °C
As of 8:21 AM on Wednesday 22 Oct 2014 (Local Time) from KHQM Reporting Station
Overcast Overcast  
Wind Chill: 58°   Ceiling: 7500
Heat Index: 58°   Visibility: 7mi
Dew Point: 57°   Wind: 5mph
Humidity: 97%   Direction: 150°SSE
Pressure: 29.68"   Gusts: NA
Location:  46.9704°N, 124.153°W
Report Text: KHQM 221521Z AUTO 15004KT 7SM SCT015 BKN075 OVC090 14/14 A2968 RMK AO2 T01440139
Loading
Personal Weather Stations






























Interactive Weather Map
Tropical Storm Tracking
New forecast layout! Learn more

10-Day Weather Forecast

Advertisements
Track Severe Weather on mobile